sensor_id;sensor_type;location;lat;lon;timestamp;P1;durP1;ratioP1;P2;durP2;ratioP2
3417;SDS011;68007;51.312;12.372;2024-01-15T00:02:00;12.17;;;8.20;;
3417;SDS011;68007;51.312;12.372;2024-01-15T00:04:28;14.20;;;8.10;;
3417;SDS011;68007;51.312;12.372;2024-01-15T00:06:56;15.57;;;8.30;;
3417;SDS011;68007;51.312;12.372;2024-01-15T00:09:24;12.43;;;7.33;;
3417;SDS011;68007;51.312;12.372;2024-01-15T00:11:53;13.43;;;8.27;;
3417;SDS011;68007;51.312;12.372;2024-01-15T00:14:20;13.37;;;7.60;;
3417;SDS011;68007;51.312;12.372;2024-01-15T00:16:48;14.53;;;7.97;;
3417;SDS011;68007;51.312;12.372;2024-01-15T00:19:17;13.27;;;8.20;;
3417;SDS011;68007;51.312;12.372;2024-01-15T00:21:46;12.53;;;7.97;;
3417;SDS011;68007;51.312;12.372;2024-01-15T00:24:14;13.60;;;8.57;;
3417;SDS011;68007;51.312;12.372;2024-01-15T00:26:41;13.90;;;8.50;;
3417;SDS011;68007;51.312;12.372;2024-01-15T00:29:09;14.07;;;8.17;;
3417;SDS011;68007;51.312;12.372;2024-01-15T00:31:36;13.83;;;8.50;;
3417;SDS011;68007;51.312;12.372;2024-01-15T00:34:04;14.50;;;8.80;;
3417;SDS011;68007;51.312;12.372;2024-01-15T00:36:31;15.37;;;9.03;;
3417;SDS011;68007;51.312;12.372;2024-01-15T00:39:00;17.97;;;10.00;;
3417;SDS011;68007;51.312;12.372;2024-01-15T00:41:30;16.13;;;8.73;;
3417;SDS011;68007;51.312;12.372;2024-01-15T00:43:58;15.93;;;8.50;;
3417;SDS011;68007;51.312;12.372;2024-01-15T00:46:25;14.70;;;8.23;;
3417;SDS011;68007;51.312;12.372;2024-01-15T00:48:53;13.40;;;8.67;;
3417;SDS011;68007;51.312;12.372;2024-01-15T00:51:20;15.77;;;8.00;;
3417;SDS011;68007;51.312;12.372;2024-01-15T00:53:49;14.83;;;9.40;;
3417;SDS011;68007;51.312;12.372;2024-01-15T00:56:17;17.10;;;9.00;;
3417;SDS011;68007;51.312;12.372;2024-01-15T00:58:45;14.33;;;8.43;;
3417;SDS011;68007;51.312;12.372;2024-01-15T01:01:12;18.07;;;8.77;;
3417;SDS011;68007;51.312;12.372;2024-01-15T01:03:40;13.80;;;8.00;;
3417;SDS011;68007;51.312;12.372;2024-01-15T01:06:07;16.00;;;8.93;;
3417;SDS011;68007;51.312;12.372;2024-01-15T01:08:35;13.87;;;8.73;;
3417;SDS011;68007;51.312;12.372;2024-01-15T01:11:03;14.20;;;7.60;;
3417;SDS011;68007;51.312;12.372;2024-01-15T01:13:33;14.77;;;8.57;;
3417;SDS011;68007;51.312;12.372;2024-01-15T01:16:01;14.93;;;8.80;;
3417;SDS011;68007;51.312;12.372;2024-01-15T01:18:29;15.40;;;9.53;;
3417;SDS011;68007;51.312;12.372;2024-01-15T01:20:56;16.57;;;8.60;;
3417;SDS011;68007;51.312;12.372;2024-01-15T01:23:24;18.27;;;9.03;;
3417;SDS011;68007;51.312;12.372;2024-01-15T01:25:51;14.90;;;7.90;;
3417;SDS011;68007;51.312;12.372;2024-01-15T01:28:19;16.33;;;8.97;;
3417;SDS011;68007;51.312;12.372;2024-01-15T01:30:48;13.47;;;8.20;;
3417;SDS011;68007;51.312;12.372;2024-01-15T01:33:15;14.60;;;8.47;;
3417;SDS011;68007;51.312;12.372;2024-01-15T01:35:43;17.03;;;9.23;;
3417;SDS011;68007;51.312;12.372;2024-01-15T01:38:10;15.47;;;8.83;;
3417;SDS011;68007;51.312;12.372;2024-01-15T01:40:38;14.33;;;8.07;;
3417;SDS011;68007;51.312;12.372;2024-01-15T01:43:05;16.77;;;9.20;;
3417;SDS011;68007;51.312;12.372;2024-01-15T01:45:32;15.20;;;8.97;;
3417;SDS011;68007;51.312;12.372;2024-01-15T01:48:01;12.03;;;8.20;;
3417;SDS011;68007;51.312;12.372;2024-01-15T01:50:29;20.30;;;9.80;;
3417;SDS011;68007;51.312;12.372;2024-01-15T01:52:58;14.20;;;8.80;;
3417;SDS011;68007;51.312;12.372;2024-01-15T01:55:26;16.83;;;8.80;;
3417;SDS011;68007;51.312;12.372;2024-01-15T01:57:56;15.87;;;9.00;;
3417;SDS011;68007;51.312;12.372;2024-01-15T02:00:23;17.87;;;10.03;;
3417;SDS011;68007;51.312;12.372;2024-01-15T02:02:51;16.50;;;9.30;;
3417;SDS011;68007;51.312;12.372;2024-01-15T02:05:20;15.00;;;8.80;;
3417;SDS011;68007;51.312;12.372;2024-01-15T02:07:48;15.40;;;8.70;;
3417;SDS011;68007;51.312;12.372;2024-01-15T02:10:16;15.50;;;8.90;;
3417;SDS011;68007;51.312;12.372;2024-01-15T02:12:44;14.97;;;8.50;;
3417;SDS011;68007;51.312;12.372;2024-01-15T02:15:14;16.77;;;8.77;;
3417;SDS011;68007;51.312;12.372;2024-01-15T02:17:57;17.53;;;9.70;;
3417;SDS011;68007;51.312;12.372;2024-01-15T02:20:27;13.80;;;8.00;;
3417;SDS011;68007;51.312;12.372;2024-01-15T02:23:01;13.33;;;7.90;;
3417;SDS011;68007;51.312;12.372;2024-01-15T02:25:37;17.80;;;7.83;;
3417;SDS011;68007;51.312;12.372;2024-01-15T02:28:06;14.67;;;8.87;;
3417;SDS011;68007;51.312;12.372;2024-01-15T02:30:35;16.60;;;8.17;;
3417;SDS011;68007;51.312;12.372;2024-01-15T02:33:05;17.53;;;9.30;;
3417;SDS011;68007;51.312;12.372;2024-01-15T02:35:32;13.97;;;8.00;;
3417;SDS011;68007;51.312;12.372;2024-01-15T02:38:03;18.13;;;9.77;;
3417;SDS011;68007;51.312;12.372;2024-01-15T02:40:31;17.23;;;8.77;;
3417;SDS011;68007;51.312;12.372;2024-01-15T02:42:59;18.83;;;8.20;;
3417;SDS011;68007;51.312;12.372;2024-01-15T02:45:27;14.40;;;7.57;;
3417;SDS011;68007;51.312;12.372;2024-01-15T02:47:54;14.90;;;8.10;;
3417;SDS011;68007;51.312;12.372;2024-01-15T02:50:22;12.60;;;8.10;;
3417;SDS011;68007;51.312;12.372;2024-01-15T02:52:49;12.60;;;7.00;;
3417;SDS011;68007;51.312;12.372;2024-01-15T02:55:18;11.77;;;7.07;;
3417;SDS011;68007;51.312;12.372;2024-01-15T02:57:46;15.20;;;8.90;;
3417;SDS011;68007;51.312;12.372;2024-01-15T03:00:13;11.43;;;7.20;;
3417;SDS011;68007;51.312;12.372;2024-01-15T03:02:44;15.70;;;7.30;;
3417;SDS011;68007;51.312;12.372;2024-01-15T03:05:12;12.43;;;7.43;;
3417;SDS011;68007;51.312;12.372;2024-01-15T03:07:39;12.50;;;7.90;;
3417;SDS011;68007;51.312;12.372;2024-01-15T03:10:07;11.90;;;7.00;;
3417;SDS011;68007;51.312;12.372;2024-01-15T03:12:36;16.07;;;7.47;;
3417;SDS011;68007;51.312;12.372;2024-01-15T03:15:04;14.43;;;8.10;;
3417;SDS011;68007;51.312;12.372;2024-01-15T03:17:32;13.30;;;7.20;;
3417;SDS011;68007;51.312;12.372;2024-01-15T03:20:00;14.07;;;8.07;;
3417;SDS011;68007;51.312;12.372;2024-01-15T03:22:28;12.93;;;7.60;;
3417;SDS011;68007;51.312;12.372;2024-01-15T03:24:55;13.30;;;7.73;;
3417;SDS011;68007;51.312;12.372;2024-01-15T03:27:23;15.90;;;7.60;;
3417;SDS011;68007;51.312;12.372;2024-01-15T03:29:53;14.40;;;7.87;;
3417;SDS011;68007;51.312;12.372;2024-01-15T03:32:20;14.37;;;7.40;;
3417;SDS011;68007;51.312;12.372;2024-01-15T03:34:48;16.10;;;8.90;;
3417;SDS011;68007;51.312;12.372;2024-01-15T03:37:15;13.20;;;7.37;;
3417;SDS011;68007;51.312;12.372;2024-01-15T03:39:43;11.93;;;6.83;;
3417;SDS011;68007;51.312;12.372;2024-01-15T03:42:10;13.63;;;7.10;;
3417;SDS011;68007;51.312;12.372;2024-01-15T03:44:37;13.97;;;8.20;;
3417;SDS011;68007;51.312;12.372;2024-01-15T03:47:06;12.20;;;7.20;;
3417;SDS011;68007;51.312;12.372;2024-01-15T03:49:34;14.37;;;8.13;;
3417;SDS011;68007;51.312;12.372;2024-01-15T03:52:01;12.67;;;6.97;;
3417;SDS011;68007;51.312;12.372;2024-01-15T03:54:29;13.63;;;8.10;;
3417;SDS011;68007;51.312;12.372;2024-01-15T03:56:57;12.50;;;6.97;;
3417;SDS011;68007;51.312;12.372;2024-01-15T03:59:24;10.90;;;6.60;;
3417;SDS011;68007;51.312;12.372;2024-01-15T04:01:52;12.17;;;7.27;;
3417;SDS011;68007;51.312;12.372;2024-01-15T04:04:20;12.70;;;7.27;;
3417;SDS011;68007;51.312;12.372;2024-01-15T04:06:48;12.27;;;6.97;;
3417;SDS011;68007;51.312;12.372;2024-01-15T04:09:15;14.30;;;7.60;;
3417;SDS011;68007;51.312;12.372;2024-01-15T04:11:43;12.20;;;7.43;;
3417;SDS011;68007;51.312;12.372;2024-01-15T04:14:09;12.03;;;6.60;;
3417;SDS011;68007;51.312;12.372;2024-01-15T04:16:37;11.70;;;5.97;;
3417;SDS011;68007;51.312;12.372;2024-01-15T04:19:04;11.87;;;6.63;;
3417;SDS011;68007;51.312;12.372;2024-01-15T04:21:33;13.23;;;6.47;;
3417;SDS011;68007;51.312;12.372;2024-01-15T04:24:01;13.47;;;6.73;;
3417;SDS011;68007;51.312;12.372;2024-01-15T04:26:28;14.03;;;7.00;;
3417;SDS011;68007;51.312;12.372;2024-01-15T04:28:56;13.00;;;6.80;;
3417;SDS011;68007;51.312;12.372;2024-01-15T04:31:24;10.63;;;6.40;;
3417;SDS011;68007;51.312;12.372;2024-01-15T04:33:53;9.87;;;5.67;;
3417;SDS011;68007;51.312;12.372;2024-01-15T04:36:20;11.33;;;6.10;;
3417;SDS011;68007;51.312;12.372;2024-01-15T04:38:49;11.60;;;5.80;;
3417;SDS011;68007;51.312;12.372;2024-01-15T04:41:16;10.00;;;5.90;;
3417;SDS011;68007;51.312;12.372;2024-01-15T04:43:44;11.97;;;6.40;;
3417;SDS011;68007;51.312;12.372;2024-01-15T04:46:11;12.23;;;6.90;;
3417;SDS011;68007;51.312;12.372;2024-01-15T04:48:39;13.03;;;6.37;;
3417;SDS011;68007;51.312;12.372;2024-01-15T04:51:08;10.30;;;5.77;;
3417;SDS011;68007;51.312;12.372;2024-01-15T04:53:36;11.80;;;5.90;;
3417;SDS011;68007;51.312;12.372;2024-01-15T04:56:05;10.70;;;6.23;;
3417;SDS011;68007;51.312;12.372;2024-01-15T04:58:33;10.07;;;6.50;;
3417;SDS011;68007;51.312;12.372;2024-01-15T05:01:00;11.60;;;5.97;;
3417;SDS011;68007;51.312;12.372;2024-01-15T05:03:28;8.53;;;5.73;;
3417;SDS011;68007;51.312;12.372;2024-01-15T05:05:55;14.93;;;5.30;;
3417;SDS011;68007;51.312;12.372;2024-01-15T05:08:23;12.17;;;6.10;;
3417;SDS011;68007;51.312;12.372;2024-01-15T05:10:50;10.10;;;5.70;;
3417;SDS011;68007;51.312;12.372;2024-01-15T05:13:19;10.90;;;5.80;;
3417;SDS011;68007;51.312;12.372;2024-01-15T05:15:46;12.43;;;5.93;;
3417;SDS011;68007;51.312;12.372;2024-01-15T05:18:14;12.37;;;5.90;;
3417;SDS011;68007;51.312;12.372;2024-01-15T05:20:42;11.03;;;6.33;;
3417;SDS011;68007;51.312;12.372;2024-01-15T05:23:09;10.00;;;5.50;;
3417;SDS011;68007;51.312;12.372;2024-01-15T05:25:37;9.50;;;6.63;;
3417;SDS011;68007;51.312;12.372;2024-01-15T05:28:05;10.53;;;5.77;;
3417;SDS011;68007;51.312;12.372;2024-01-15T05:30:34;9.63;;;5.37;;
3417;SDS011;68007;51.312;12.372;2024-01-15T05:33:01;12.00;;;6.50;;
3417;SDS011;68007;51.312;12.372;2024-01-15T05:35:29;8.40;;;5.43;;
3417;SDS011;68007;51.312;12.372;2024-01-15T05:37:57;10.33;;;5.93;;
3417;SDS011;68007;51.312;12.372;2024-01-15T05:40:24;8.40;;;5.40;;
3417;SDS011;68007;51.312;12.372;2024-01-15T05:42:52;10.97;;;6.10;;
3417;SDS011;68007;51.312;12.372;2024-01-15T05:45:19;11.63;;;5.70;;
3417;SDS011;68007;51.312;12.372;2024-01-15T05:47:48;14.13;;;7.10;;
3417;SDS011;68007;51.312;12.372;2024-01-15T05:50:15;15.70;;;6.37;;
3417;SDS011;68007;51.312;12.372;2024-01-15T05:52:43;12.00;;;6.90;;
3417;SDS011;68007;51.312;12.372;2024-01-15T05:55:11;14.10;;;5.97;;
3417;SDS011;68007;51.312;12.372;2024-01-15T05:57:38;11.53;;;6.33;;
3417;SDS011;68007;51.312;12.372;2024-01-15T06:00:06;9.43;;;5.80;;
3417;SDS011;68007;51.312;12.372;2024-01-15T06:02:36;7.50;;;4.63;;
3417;SDS011;68007;51.312;12.372;2024-01-15T06:05:06;13.30;;;5.73;;
3417;SDS011;68007;51.312;12.372;2024-01-15T06:07:33;11.60;;;5.77;;
3417;SDS011;68007;51.312;12.372;2024-01-15T06:10:01;7.83;;;5.00;;
3417;SDS011;68007;51.312;12.372;2024-01-15T06:12:28;9.30;;;4.90;;
3417;SDS011;68007;51.312;12.372;2024-01-15T06:14:56;10.37;;;5.63;;
3417;SDS011;68007;51.312;12.372;2024-01-15T06:17:24;6.70;;;4.80;;
3417;SDS011;68007;51.312;12.372;2024-01-15T06:19:51;15.53;;;5.40;;
3417;SDS011;68007;51.312;12.372;2024-01-15T06:22:20;8.73;;;4.63;;
3417;SDS011;68007;51.312;12.372;2024-01-15T06:24:47;8.03;;;4.97;;
3417;SDS011;68007;51.312;12.372;2024-01-15T06:27:15;9.23;;;5.00;;
3417;SDS011;68007;51.312;12.372;2024-01-15T06:29:44;7.13;;;4.50;;
3417;SDS011;68007;51.312;12.372;2024-01-15T06:32:13;8.17;;;5.20;;
3417;SDS011;68007;51.312;12.372;2024-01-15T06:34:40;8.80;;;4.87;;
3417;SDS011;68007;51.312;12.372;2024-01-15T06:37:07;9.23;;;5.10;;
3417;SDS011;68007;51.312;12.372;2024-01-15T06:39:36;9.27;;;5.07;;
3417;SDS011;68007;51.312;12.372;2024-01-15T06:42:04;6.60;;;4.37;;
3417;SDS011;68007;51.312;12.372;2024-01-15T06:44:32;12.40;;;6.17;;
3417;SDS011;68007;51.312;12.372;2024-01-15T06:47:00;9.83;;;4.90;;
3417;SDS011;68007;51.312;12.372;2024-01-15T06:49:28;9.50;;;5.40;;
3417;SDS011;68007;51.312;12.372;2024-01-15T06:51:56;10.33;;;5.00;;
3417;SDS011;68007;51.312;12.372;2024-01-15T06:54:25;12.93;;;5.60;;
3417;SDS011;68007;51.312;12.372;2024-01-15T06:56:54;9.93;;;5.40;;
3417;SDS011;68007;51.312;12.372;2024-01-15T06:59:21;8.23;;;4.40;;
3417;SDS011;68007;51.312;12.372;2024-01-15T07:01:49;8.17;;;4.80;;
3417;SDS011;68007;51.312;12.372;2024-01-15T07:04:16;7.37;;;5.20;;
3417;SDS011;68007;51.312;12.372;2024-01-15T07:06:44;7.27;;;4.10;;
3417;SDS011;68007;51.312;12.372;2024-01-15T07:09:11;9.70;;;4.70;;
3417;SDS011;68007;51.312;12.372;2024-01-15T07:11:43;7.30;;;4.60;;
3417;SDS011;68007;51.312;12.372;2024-01-15T07:14:12;8.47;;;5.13;;
3417;SDS011;68007;51.312;12.372;2024-01-15T07:16:40;11.97;;;5.13;;
3417;SDS011;68007;51.312;12.372;2024-01-15T07:19:08;7.17;;;4.67;;
3417;SDS011;68007;51.312;12.372;2024-01-15T07:21:35;8.93;;;5.37;;
3417;SDS011;68007;51.312;12.372;2024-01-15T07:24:05;10.70;;;5.17;;
3417;SDS011;68007;51.312;12.372;2024-01-15T07:26:33;9.80;;;5.17;;
3417;SDS011;68007;51.312;12.372;2024-01-15T07:29:00;11.37;;;5.53;;
3417;SDS011;68007;51.312;12.372;2024-01-15T07:31:30;10.63;;;5.27;;
3417;SDS011;68007;51.312;12.372;2024-01-15T07:33:58;7.97;;;4.60;;
3417;SDS011;68007;51.312;12.372;2024-01-15T07:36:25;11.93;;;5.07;;
3417;SDS011;68007;51.312;12.372;2024-01-15T07:38:53;12.83;;;4.70;;
3417;SDS011;68007;51.312;12.372;2024-01-15T07:41:20;9.13;;;4.80;;
3417;SDS011;68007;51.312;12.372;2024-01-15T07:43:49;6.83;;;4.50;;
3417;SDS011;68007;51.312;12.372;2024-01-15T07:46:16;8.93;;;4.70;;
3417;SDS011;68007;51.312;12.372;2024-01-15T07:48:45;5.60;;;3.80;;
3417;SDS011;68007;51.312;12.372;2024-01-15T07:51:13;8.77;;;4.50;;
3417;SDS011;68007;51.312;12.372;2024-01-15T07:53:40;7.73;;;3.87;;
3417;SDS011;68007;51.312;12.372;2024-01-15T07:56:08;10.50;;;4.23;;
3417;SDS011;68007;51.312;12.372;2024-01-15T07:58:35;10.33;;;4.80;;
3417;SDS011;68007;51.312;12.372;2024-01-15T08:01:03;11.10;;;4.97;;
3417;SDS011;68007;51.312;12.372;2024-01-15T08:03:32;10.83;;;5.27;;
3417;SDS011;68007;51.312;12.372;2024-01-15T08:06:00;8.30;;;4.20;;
3417;SDS011;68007;51.312;12.372;2024-01-15T08:08:28;16.47;;;4.60;;
3417;SDS011;68007;51.312;12.372;2024-01-15T08:10:55;8.33;;;4.80;;
3417;SDS011;68007;51.312;12.372;2024-01-15T08:13:26;6.47;;;4.03;;
3417;SDS011;68007;51.312;12.372;2024-01-15T08:15:53;8.60;;;4.47;;
3417;SDS011;68007;51.312;12.372;2024-01-15T08:18:21;9.10;;;4.87;;
3417;SDS011;68007;51.312;12.372;2024-01-15T08:20:49;9.60;;;5.10;;
3417;SDS011;68007;51.312;12.372;2024-01-15T08:23:18;11.87;;;4.77;;
3417;SDS011;68007;51.312;12.372;2024-01-15T08:25:47;8.90;;;4.70;;
3417;SDS011;68007;51.312;12.372;2024-01-15T08:28:14;9.73;;;4.43;;
3417;SDS011;68007;51.312;12.372;2024-01-15T08:30:42;9.33;;;4.10;;
3417;SDS011;68007;51.312;12.372;2024-01-15T08:33:11;7.10;;;4.50;;
3417;SDS011;68007;51.312;12.372;2024-01-15T08:35:38;8.57;;;5.00;;
3417;SDS011;68007;51.312;12.372;2024-01-15T08:38:06;11.20;;;4.93;;
3417;SDS011;68007;51.312;12.372;2024-01-15T08:40:35;11.03;;;4.60;;
3417;SDS011;68007;51.312;12.372;2024-01-15T08:43:02;8.93;;;4.07;;
3417;SDS011;68007;51.312;12.372;2024-01-15T08:45:32;8.03;;;4.27;;
3417;SDS011;68007;51.312;12.372;2024-01-15T08:48:00;8.30;;;4.57;;
3417;SDS011;68007;51.312;12.372;2024-01-15T08:50:28;8.77;;;4.70;;
3417;SDS011;68007;51.312;12.372;2024-01-15T08:52:57;9.53;;;3.83;;
3417;SDS011;68007;51.312;12.372;2024-01-15T08:55:25;8.83;;;4.53;;
3417;SDS011;68007;51.312;12.372;2024-01-15T08:57:54;9.33;;;4.20;;
3417;SDS011;68007;51.312;12.372;2024-01-15T09:00:21;9.20;;;5.20;;
3417;SDS011;68007;51.312;12.372;2024-01-15T09:02:49;12.10;;;4.60;;
3417;SDS011;68007;51.312;12.372;2024-01-15T09:05:16;6.80;;;4.10;;
3417;SDS011;68007;51.312;12.372;2024-01-15T09:07:44;9.90;;;4.70;;
3417;SDS011;68007;51.312;12.372;2024-01-15T09:10:12;12.50;;;5.70;;
3417;SDS011;68007;51.312;12.372;2024-01-15T09:12:40;8.50;;;4.20;;
3417;SDS011;68007;51.312;12.372;2024-01-15T09:15:09;11.17;;;5.17;;
3417;SDS011;68007;51.312;12.372;2024-01-15T09:17:37;11.73;;;4.20;;
3417;SDS011;68007;51.312;12.372;2024-01-15T09:20:05;8.10;;;4.00;;
3417;SDS011;68007;51.312;12.372;2024-01-15T09:22:33;11.60;;;5.00;;
3417;SDS011;68007;51.312;12.372;2024-01-15T09:25:01;6.93;;;4.17;;
3417;SDS011;68007;51.312;12.372;2024-01-15T09:27:29;6.90;;;4.00;;
3417;SDS011;68007;51.312;12.372;2024-01-15T09:29:58;10.07;;;4.70;;
3417;SDS011;68007;51.312;12.372;2024-01-15T09:32:27;6.70;;;3.90;;
3417;SDS011;68007;51.312;12.372;2024-01-15T09:34:55;6.93;;;3.93;;
3417;SDS011;68007;51.312;12.372;2024-01-15T09:37:22;10.23;;;4.30;;
3417;SDS011;68007;51.312;12.372;2024-01-15T09:39:50;8.10;;;4.03;;
3417;SDS011;68007;51.312;12.372;2024-01-15T09:42:17;10.60;;;5.17;;
3417;SDS011;68007;51.312;12.372;2024-01-15T09:44:45;6.37;;;4.27;;
3417;SDS011;68007;51.312;12.372;2024-01-15T09:47:14;8.73;;;5.80;;
3417;SDS011;68007;51.312;12.372;2024-01-15T09:49:44;6.30;;;3.93;;
3417;SDS011;68007;51.312;12.372;2024-01-15T09:52:12;15.43;;;5.27;;
3417;SDS011;68007;51.312;12.372;2024-01-15T09:54:42;13.23;;;5.37;;
3417;SDS011;68007;51.312;12.372;2024-01-15T09:57:10;7.00;;;4.50;;
3417;SDS011;68007;51.312;12.372;2024-01-15T09:59:38;12.00;;;4.67;;
3417;SDS011;68007;51.312;12.372;2024-01-15T10:02:09;8.30;;;5.10;;
3417;SDS011;68007;51.312;12.372;2024-01-15T10:04:40;9.87;;;5.40;;
3417;SDS011;68007;51.312;12.372;2024-01-15T10:07:10;6.13;;;4.17;;
3417;SDS011;68007;51.312;12.372;2024-01-15T10:09:42;12.93;;;4.40;;
3417;SDS011;68007;51.312;12.372;2024-01-15T10:12:09;7.43;;;4.33;;
3417;SDS011;68007;51.312;12.372;2024-01-15T10:14:37;9.27;;;4.43;;
3417;SDS011;68007;51.312;12.372;2024-01-15T10:17:11;9.50;;;4.30;;
3417;SDS011;68007;51.312;12.372;2024-01-15T10:19:40;11.10;;;4.77;;
3417;SDS011;68007;51.312;12.372;2024-01-15T10:22:08;10.03;;;3.80;;
3417;SDS011;68007;51.312;12.372;2024-01-15T10:24:37;15.13;;;4.63;;
3417;SDS011;68007;51.312;12.372;2024-01-15T10:27:05;9.73;;;4.90;;
3417;SDS011;68007;51.312;12.372;2024-01-15T10:29:33;11.73;;;4.67;;
3417;SDS011;68007;51.312;12.372;2024-01-15T10:32:02;7.73;;;4.00;;
3417;SDS011;68007;51.312;12.372;2024-01-15T10:34:33;8.90;;;4.50;;
3417;SDS011;68007;51.312;12.372;2024-01-15T10:37:01;9.57;;;4.30;;
3417;SDS011;68007;51.312;12.372;2024-01-15T10:39:28;9.27;;;4.63;;
3417;SDS011;68007;51.312;12.372;2024-01-15T10:41:58;7.60;;;4.23;;
3417;SDS011;68007;51.312;12.372;2024-01-15T10:44:25;10.47;;;4.73;;
3417;SDS011;68007;51.312;12.372;2024-01-15T10:46:53;7.47;;;4.60;;
3417;SDS011;68007;51.312;12.372;2024-01-15T10:49:23;7.27;;;4.30;;
3417;SDS011;68007;51.312;12.372;2024-01-15T10:51:52;7.30;;;5.20;;
3417;SDS011;68007;51.312;12.372;2024-01-15T10:54:20;7.17;;;4.57;;
3417;SDS011;68007;51.312;12.372;2024-01-15T10:56:49;7.27;;;4.40;;
3417;SDS011;68007;51.312;12.372;2024-01-15T10:59:20;6.83;;;4.80;;
3417;SDS011;68007;51.312;12.372;2024-01-15T11:01:49;14.07;;;5.10;;
3417;SDS011;68007;51.312;12.372;2024-01-15T11:04:19;8.83;;;4.80;;
3417;SDS011;68007;51.312;12.372;2024-01-15T11:06:48;7.67;;;4.40;;
3417;SDS011;68007;51.312;12.372;2024-01-15T11:09:17;8.07;;;4.60;;
3417;SDS011;68007;51.312;12.372;2024-01-15T11:11:45;9.13;;;4.87;;
3417;SDS011;68007;51.312;12.372;2024-01-15T11:14:34;8.83;;;4.83;;
3417;SDS011;68007;51.312;12.372;2024-01-15T11:17:02;13.30;;;4.27;;
3417;SDS011;68007;51.312;12.372;2024-01-15T11:19:35;11.03;;;4.80;;
3417;SDS011;68007;51.312;12.372;2024-01-15T11:22:07;8.40;;;4.60;;
3417;SDS011;68007;51.312;12.372;2024-01-15T11:24:36;6.87;;;3.90;;
3417;SDS011;68007;51.312;12.372;2024-01-15T11:27:05;10.20;;;3.90;;
3417;SDS011;68007;51.312;12.372;2024-01-15T11:29:35;7.30;;;4.17;;
3417;SDS011;68007;51.312;12.372;2024-01-15T11:32:04;8.60;;;4.60;;
3417;SDS011;68007;51.312;12.372;2024-01-15T11:34:55;7.13;;;3.80;;
3417;SDS011;68007;51.312;12.372;2024-01-15T11:37:28;10.30;;;4.80;;
3417;SDS011;68007;51.312;12.372;2024-01-15T11:40:00;9.00;;;4.37;;
3417;SDS011;68007;51.312;12.372;2024-01-15T11:42:29;6.77;;;4.20;;
3417;SDS011;68007;51.312;12.372;2024-01-15T11:44:58;8.00;;;4.17;;
3417;SDS011;68007;51.312;12.372;2024-01-15T11:47:39;7.60;;;4.43;;
3417;SDS011;68007;51.312;12.372;2024-01-15T11:50:29;12.10;;;4.70;;
3417;SDS011;68007;51.312;12.372;2024-01-15T11:52:59;9.37;;;4.33;;
3417;SDS011;68007;51.312;12.372;2024-01-15T11:55:29;7.87;;;4.10;;
3417;SDS011;68007;51.312;12.372;2024-01-15T11:58:01;9.97;;;4.87;;
3417;SDS011;68007;51.312;12.372;2024-01-15T12:00:32;7.20;;;4.00;;
3417;SDS011;68007;51.312;12.372;2024-01-15T12:03:00;9.10;;;4.47;;
3417;SDS011;68007;51.312;12.372;2024-01-15T12:05:28;10.90;;;4.50;;
3417;SDS011;68007;51.312;12.372;2024-01-15T12:07:56;8.13;;;4.47;;
3417;SDS011;68007;51.312;12.372;2024-01-15T12:10:23;7.70;;;4.20;;
3417;SDS011;68007;51.312;12.372;2024-01-15T12:12:57;8.57;;;4.10;;
3417;SDS011;68007;51.312;12.372;2024-01-15T12:15:27;6.60;;;3.23;;
3417;SDS011;68007;51.312;12.372;2024-01-15T12:17:57;7.00;;;4.17;;
3417;SDS011;68007;51.312;12.372;2024-01-15T12:20:26;10.40;;;4.40;;
3417;SDS011;68007;51.312;12.372;2024-01-15T12:22:54;7.10;;;4.27;;
3417;SDS011;68007;51.312;12.372;2024-01-15T12:25:22;6.00;;;3.93;;
3417;SDS011;68007;51.312;12.372;2024-01-15T12:27:50;9.00;;;4.60;;
3417;SDS011;68007;51.312;12.372;2024-01-15T12:30:18;7.40;;;4.73;;
3417;SDS011;68007;51.312;12.372;2024-01-15T12:32:46;11.10;;;4.30;;
3417;SDS011;68007;51.312;12.372;2024-01-15T12:35:15;8.50;;;4.30;;
3417;SDS011;68007;51.312;12.372;2024-01-15T12:37:43;6.90;;;4.40;;
3417;SDS011;68007;51.312;12.372;2024-01-15T12:40:12;6.03;;;3.90;;
3417;SDS011;68007;51.312;12.372;2024-01-15T12:42:40;5.70;;;3.80;;
3417;SDS011;68007;51.312;12.372;2024-01-15T12:45:09;7.70;;;3.80;;
3417;SDS011;68007;51.312;12.372;2024-01-15T12:47:38;5.70;;;3.80;;
3417;SDS011;68007;51.312;12.372;2024-01-15T12:50:06;6.43;;;4.63;;
3417;SDS011;68007;51.312;12.372;2024-01-15T12:52:37;7.23;;;4.03;;
3417;SDS011;68007;51.312;12.372;2024-01-15T12:55:04;8.40;;;4.10;;
3417;SDS011;68007;51.312;12.372;2024-01-15T12:57:32;8.83;;;4.27;;
3417;SDS011;68007;51.312;12.372;2024-01-15T13:00:01;9.77;;;4.33;;
3417;SDS011;68007;51.312;12.372;2024-01-15T13:02:32;9.87;;;4.57;;
3417;SDS011;68007;51.312;12.372;2024-01-15T13:05:00;7.00;;;4.70;;
3417;SDS011;68007;51.312;12.372;2024-01-15T13:07:29;10.97;;;4.80;;
3417;SDS011;68007;51.312;12.372;2024-01-15T13:09:59;10.50;;;4.87;;
3417;SDS011;68007;51.312;12.372;2024-01-15T13:12:26;5.83;;;3.87;;
3417;SDS011;68007;51.312;12.372;2024-01-15T13:14:54;9.07;;;5.13;;
3417;SDS011;68007;51.312;12.372;2024-01-15T13:17:22;7.53;;;4.53;;
3417;SDS011;68007;51.312;12.372;2024-01-15T13:19:49;7.17;;;4.00;;
3417;SDS011;68007;51.312;12.372;2024-01-15T13:22:17;9.60;;;4.07;;
3417;SDS011;68007;51.312;12.372;2024-01-15T13:24:44;6.10;;;3.73;;
3417;SDS011;68007;51.312;12.372;2024-01-15T13:27:13;7.90;;;4.03;;
3417;SDS011;68007;51.312;12.372;2024-01-15T13:29:40;9.10;;;4.87;;
3417;SDS011;68007;51.312;12.372;2024-01-15T13:32:08;5.40;;;3.87;;
3417;SDS011;68007;51.312;12.372;2024-01-15T13:34:42;9.43;;;4.00;;
3417;SDS011;68007;51.312;12.372;2024-01-15T13:37:10;11.27;;;4.23;;
3417;SDS011;68007;51.312;12.372;2024-01-15T13:39:37;7.60;;;4.50;;
3417;SDS011;68007;51.312;12.372;2024-01-15T13:42:05;7.87;;;4.57;;
3417;SDS011;68007;51.312;12.372;2024-01-15T13:44:34;9.00;;;4.63;;
3417;SDS011;68007;51.312;12.372;2024-01-15T13:47:01;10.50;;;4.60;;
3417;SDS011;68007;51.312;12.372;2024-01-15T13:49:30;6.37;;;4.00;;
3417;SDS011;68007;51.312;12.372;2024-01-15T13:51:59;8.57;;;4.57;;
3417;SDS011;68007;51.312;12.372;2024-01-15T13:54:29;6.80;;;3.87;;
3417;SDS011;68007;51.312;12.372;2024-01-15T13:56:57;8.67;;;4.43;;
3417;SDS011;68007;51.312;12.372;2024-01-15T13:59:25;5.57;;;3.63;;
3417;SDS011;68007;51.312;12.372;2024-01-15T14:01:54;10.67;;;4.80;;
3417;SDS011;68007;51.312;12.372;2024-01-15T14:04:21;7.83;;;4.10;;
3417;SDS011;68007;51.312;12.372;2024-01-15T14:06:49;6.87;;;4.27;;
3417;SDS011;68007;51.312;12.372;2024-01-15T14:09:16;6.03;;;3.43;;
3417;SDS011;68007;51.312;12.372;2024-01-15T14:11:44;7.13;;;4.23;;
3417;SDS011;68007;51.312;12.372;2024-01-15T14:14:11;6.03;;;3.80;;
3417;SDS011;68007;51.312;12.372;2024-01-15T14:16:39;7.57;;;4.27;;
3417;SDS011;68007;51.312;12.372;2024-01-15T14:19:08;8.70;;;4.30;;
3417;SDS011;68007;51.312;12.372;2024-01-15T14:21:36;6.40;;;4.17;;
3417;SDS011;68007;51.312;12.372;2024-01-15T14:24:04;9.60;;;4.70;;
3417;SDS011;68007;51.312;12.372;2024-01-15T14:26:32;7.70;;;4.33;;
3417;SDS011;68007;51.312;12.372;2024-01-15T14:28:59;9.30;;;4.63;;
3417;SDS011;68007;51.312;12.372;2024-01-15T14:31:27;9.60;;;4.67;;
3417;SDS011;68007;51.312;12.372;2024-01-15T14:33:54;8.90;;;4.37;;
3417;SDS011;68007;51.312;12.372;2024-01-15T14:36:23;7.87;;;4.03;;
3417;SDS011;68007;51.312;12.372;2024-01-15T14:38:51;9.77;;;4.27;;
3417;SDS011;68007;51.312;12.372;2024-01-15T14:41:18;9.17;;;4.00;;
3417;SDS011;68007;51.312;12.372;2024-01-15T14:43:46;8.87;;;4.63;;
3417;SDS011;68007;51.312;12.372;2024-01-15T14:46:13;8.77;;;5.33;;
3417;SDS011;68007;51.312;12.372;2024-01-15T14:48:41;6.40;;;4.37;;